sensor_id;sensor_type;location;lat;lon;timestamp;pressure;altitude;pressure_sealevel;temperature;humidity
15884;BME280;8040;50.254;10.960;2023-09-12T00:01:03;97966.97;;;19.07;71.27
15884;BME280;8040;50.254;10.960;2023-09-12T00:03:30;97952.94;;;18.93;71.42
15884;BME280;8040;50.254;10.960;2023-09-12T00:05:57;97941.34;;;18.84;71.41
15884;BME280;8040;50.254;10.960;2023-09-12T00:08:23;97910.75;;;18.67;71.53
15884;BME280;8040;50.254;10.960;2023-09-12T00:11:02;97934.13;;;18.76;71.24
15884;BME280;8040;50.254;10.960;2023-09-12T00:13:29;97935.28;;;18.75;71.33
15884;BME280;8040;50.254;10.960;2023-09-12T00:19:35;97946.28;;;18.75;71.81
15884;BME280;8040;50.254;10.960;2023-09-12T00:22:00;97900.09;;;18.46;71.67
15884;BME280;8040;50.254;10.960;2023-09-12T00:24:26;97940.25;;;18.70;71.84
15884;BME280;8040;50.254;10.960;2023-09-12T00:26:51;97959.56;;;18.73;72.01
15884;BME280;8040;50.254;10.960;2023-09-12T00:29:17;97926.41;;;18.47;72.23
15884;BME280;8040;50.254;10.960;2023-09-12T00:31:42;97932.84;;;18.55;72.44
15884;BME280;8040;50.254;10.960;2023-09-12T00:34:07;97905.06;;;18.41;72.74
15884;BME280;8040;50.254;10.960;2023-09-12T00:36:33;97911.06;;;18.46;72.65
15884;BME280;8040;50.254;10.960;2023-09-12T00:38:58;97930.91;;;18.55;72.94
15884;BME280;8040;50.254;10.960;2023-09-12T00:41:25;97889.47;;;18.29;73.07
15884;BME280;8040;50.254;10.960;2023-09-12T00:43:50;97939.31;;;18.62;73.14
15884;BME280;8040;50.254;10.960;2023-09-12T00:46:18;97938.41;;;18.58;73.13
15884;BME280;8040;50.254;10.960;2023-09-12T00:48:45;97914.91;;;18.42;72.90
15884;BME280;8040;50.254;10.960;2023-09-12T00:51:13;97907.00;;;18.40;72.90
15884;BME280;8040;50.254;10.960;2023-09-12T00:53:39;97892.47;;;18.24;73.11
15884;BME280;8040;50.254;10.960;2023-09-12T00:56:06;97916.50;;;18.43;73.33
15884;BME280;8040;50.254;10.960;2023-09-12T00:58:31;97916.75;;;18.38;73.44
15884;BME280;8040;50.254;10.960;2023-09-12T01:00:57;97929.53;;;18.46;73.29
15884;BME280;8040;50.254;10.960;2023-09-12T01:03:25;97874.59;;;18.15;73.25
15884;BME280;8040;50.254;10.960;2023-09-12T01:05:50;97881.81;;;18.19;73.20
15884;BME280;8040;50.254;10.960;2023-09-12T01:08:17;97921.47;;;18.37;73.43
15884;BME280;8040;50.254;10.960;2023-09-12T01:10:43;97901.88;;;18.23;73.40
15884;BME280;8040;50.254;10.960;2023-09-12T01:13:14;97872.78;;;18.03;73.20
15884;BME280;8040;50.254;10.960;2023-09-12T01:15:41;97917.13;;;18.36;73.38
15884;BME280;8040;50.254;10.960;2023-09-12T01:18:07;97908.94;;;18.24;73.37
15884;BME280;8040;50.254;10.960;2023-09-12T01:20:34;97885.00;;;18.06;73.67
15884;BME280;8040;50.254;10.960;2023-09-12T01:23:21;97932.38;;;18.34;73.69
15884;BME280;8040;50.254;10.960;2023-09-12T01:28:40;97901.38;;;18.02;73.79
15884;BME280;8040;50.254;10.960;2023-09-12T01:31:11;97922.53;;;18.17;73.85
15884;BME280;8040;50.254;10.960;2023-09-12T01:33:37;97874.22;;;17.82;73.96
15884;BME280;8040;50.254;10.960;2023-09-12T01:36:03;97929.34;;;18.08;74.23
15884;BME280;8040;50.254;10.960;2023-09-12T01:38:28;97858.13;;;17.65;74.26
15884;BME280;8040;50.254;10.960;2023-09-12T01:40:55;97934.22;;;18.14;74.42
15884;BME280;8040;50.254;10.960;2023-09-12T01:43:25;97936.06;;;18.10;74.56
15884;BME280;8040;50.254;10.960;2023-09-12T01:45:56;97918.38;;;18.08;74.57
15884;BME280;8040;50.254;10.960;2023-09-12T01:48:27;97866.72;;;17.79;74.45
15884;BME280;8040;50.254;10.960;2023-09-12T01:50:57;97882.38;;;17.78;74.58
15884;BME280;8040;50.254;10.960;2023-09-12T01:53:23;97864.06;;;17.67;74.85
15884;BME280;8040;50.254;10.960;2023-09-12T01:55:49;97904.13;;;17.87;74.94
15884;BME280;8040;50.254;10.960;2023-09-12T01:58:15;97847.69;;;17.55;75.12
15884;BME280;8040;50.254;10.960;2023-09-12T02:00:41;97911.81;;;17.97;74.99
15884;BME280;8040;50.254;10.960;2023-09-12T02:03:06;97893.50;;;17.85;74.92
15884;BME280;8040;50.254;10.960;2023-09-12T02:05:35;97903.41;;;17.90;75.00
15884;BME280;8040;50.254;10.960;2023-09-12T02:08:01;97887.13;;;17.81;75.10
15884;BME280;8040;50.254;10.960;2023-09-12T02:10:27;97906.97;;;17.90;75.32
15884;BME280;8040;50.254;10.960;2023-09-12T02:12:52;97863.00;;;17.56;74.99
15884;BME280;8040;50.254;10.960;2023-09-12T02:15:18;97883.69;;;17.69;74.96
15884;BME280;8040;50.254;10.960;2023-09-12T02:17:43;97909.28;;;17.88;74.79
15884;BME280;8040;50.254;10.960;2023-09-12T02:20:09;97886.09;;;17.70;74.86
15884;BME280;8040;50.254;10.960;2023-09-12T02:22:35;97904.06;;;17.83;75.25
15884;BME280;8040;50.254;10.960;2023-09-12T02:25:02;97930.34;;;17.84;75.51
15884;BME280;8040;50.254;10.960;2023-09-12T02:27:28;97847.88;;;17.46;75.55
15884;BME280;8040;50.254;10.960;2023-09-12T02:29:53;97850.88;;;17.41;75.47
15884;BME280;8040;50.254;10.960;2023-09-12T02:32:20;97901.66;;;17.66;75.24
15884;BME280;8040;50.254;10.960;2023-09-12T02:34:45;97888.91;;;17.58;75.23
15884;BME280;8040;50.254;10.960;2023-09-12T02:37:11;97865.34;;;17.42;75.20
15884;BME280;8040;50.254;10.960;2023-09-12T02:39:36;97916.28;;;17.70;75.15
15884;BME280;8040;50.254;10.960;2023-09-12T02:42:02;97912.63;;;17.66;75.34
15884;BME280;8040;50.254;10.960;2023-09-12T02:44:27;97846.59;;;17.28;75.75
15884;BME280;8040;50.254;10.960;2023-09-12T02:46:53;97875.13;;;17.39;76.05
15884;BME280;8040;50.254;10.960;2023-09-12T02:49:18;97877.84;;;17.39;75.99
15884;BME280;8040;50.254;10.960;2023-09-12T02:51:45;97880.69;;;17.43;76.17
15884;BME280;8040;50.254;10.960;2023-09-12T02:54:10;97844.34;;;17.18;76.16
15884;BME280;8040;50.254;10.960;2023-09-12T02:56:36;97843.19;;;17.19;75.93
15884;BME280;8040;50.254;10.960;2023-09-12T02:59:01;97883.50;;;17.46;76.40
15884;BME280;8040;50.254;10.960;2023-09-12T03:01:26;97882.19;;;17.40;76.70
15884;BME280;8040;50.254;10.960;2023-09-12T03:03:54;97914.03;;;17.60;76.63
15884;BME280;8040;50.254;10.960;2023-09-12T03:06:20;97914.03;;;17.60;76.60
15884;BME280;8040;50.254;10.960;2023-09-12T03:08:46;97899.06;;;17.42;76.25
15884;BME280;8040;50.254;10.960;2023-09-12T03:11:13;97891.19;;;17.41;76.58
15884;BME280;8040;50.254;10.960;2023-09-12T03:13:41;97919.25;;;17.50;76.64
15884;BME280;8040;50.254;10.960;2023-09-12T03:16:13;97881.41;;;17.28;76.77
15884;BME280;8040;50.254;10.960;2023-09-12T03:18:39;97878.31;;;17.29;76.69
15884;BME280;8040;50.254;10.960;2023-09-12T03:21:05;97897.69;;;17.36;76.63
15884;BME280;8040;50.254;10.960;2023-09-12T03:23:31;97875.16;;;17.27;76.66
15884;BME280;8040;50.254;10.960;2023-09-12T03:26:04;97893.84;;;17.37;76.78
15884;BME280;8040;50.254;10.960;2023-09-12T03:28:30;97813.97;;;16.80;76.93
15884;BME280;8040;50.254;10.960;2023-09-12T03:31:09;97907.09;;;17.35;76.97
15884;BME280;8040;50.254;10.960;2023-09-12T03:33:39;97885.13;;;17.20;76.91
15884;BME280;8040;50.254;10.960;2023-09-12T03:36:05;97869.03;;;17.18;76.90
15884;BME280;8040;50.254;10.960;2023-09-12T03:38:32;97864.69;;;17.17;77.07
15884;BME280;8040;50.254;10.960;2023-09-12T03:40:57;97884.88;;;17.25;77.36
15884;BME280;8040;50.254;10.960;2023-09-12T03:43:22;97878.31;;;17.14;77.53
15884;BME280;8040;50.254;10.960;2023-09-12T03:45:48;97849.28;;;16.97;77.08
15884;BME280;8040;50.254;10.960;2023-09-12T03:48:14;97846.34;;;16.90;77.60
15884;BME280;8040;50.254;10.960;2023-09-12T03:50:39;97868.66;;;17.04;77.58
15884;BME280;8040;50.254;10.960;2023-09-12T03:53:05;97841.13;;;16.85;77.43
15884;BME280;8040;50.254;10.960;2023-09-12T03:55:30;97851.03;;;16.90;77.47
15884;BME280;8040;50.254;10.960;2023-09-12T03:57:56;97909.88;;;17.23;77.57
15884;BME280;8040;50.254;10.960;2023-09-12T04:00:21;97911.72;;;17.19;77.80
15884;BME280;8040;50.254;10.960;2023-09-12T04:02:46;97838.19;;;16.78;77.57
15884;BME280;8040;50.254;10.960;2023-09-12T04:05:12;97899.97;;;17.19;77.52
15884;BME280;8040;50.254;10.960;2023-09-12T04:07:37;97874.38;;;16.99;77.73
15884;BME280;8040;50.254;10.960;2023-09-12T04:10:03;97912.09;;;17.18;78.08
15884;BME280;8040;50.254;10.960;2023-09-12T04:12:29;97871.88;;;16.94;78.08
15884;BME280;8040;50.254;10.960;2023-09-12T04:15:00;97915.97;;;17.17;78.13
15884;BME280;8040;50.254;10.960;2023-09-12T04:17:26;97858.22;;;16.82;78.26
15884;BME280;8040;50.254;10.960;2023-09-12T04:19:51;97912.09;;;17.18;78.47
15884;BME280;8040;50.254;10.960;2023-09-12T04:22:17;97884.28;;;17.04;78.51
15884;BME280;8040;50.254;10.960;2023-09-12T04:24:42;97867.22;;;16.95;78.34
15884;BME280;8040;50.254;10.960;2023-09-12T04:27:07;97863.66;;;16.94;78.39
15884;BME280;8040;50.254;10.960;2023-09-12T04:29:33;97838.97;;;16.79;78.44
15884;BME280;8040;50.254;10.960;2023-09-12T04:32:02;97876.31;;;16.99;78.63
15884;BME280;8040;50.254;10.960;2023-09-12T04:34:28;97838.63;;;16.80;78.45
15884;BME280;8040;50.254;10.960;2023-09-12T04:36:54;97899.88;;;17.15;78.29
15884;BME280;8040;50.254;10.960;2023-09-12T04:39:19;97902.16;;;17.13;78.15
15884;BME280;8040;50.254;10.960;2023-09-12T04:41:46;97889.84;;;17.07;78.13
15884;BME280;8040;50.254;10.960;2023-09-12T04:44:11;97880.09;;;16.94;78.01
15884;BME280;8040;50.254;10.960;2023-09-12T04:46:36;97885.78;;;17.01;77.93
15884;BME280;8040;50.254;10.960;2023-09-12T04:49:02;97923.94;;;17.22;77.81
15884;BME280;8040;50.254;10.960;2023-09-12T04:51:28;97888.06;;;16.99;77.67
15884;BME280;8040;50.254;10.960;2023-09-12T04:53:53;97907.00;;;17.04;78.03
15884;BME280;8040;50.254;10.960;2023-09-12T04:56:19;97882.16;;;16.97;77.93
15884;BME280;8040;50.254;10.960;2023-09-12T05:01:28;97894.19;;;17.08;77.52
15884;BME280;8040;50.254;10.960;2023-09-12T05:03:54;97869.31;;;17.01;77.80
15884;BME280;8040;50.254;10.960;2023-09-12T05:06:19;97900.16;;;17.26;77.76
15884;BME280;8040;50.254;10.960;2023-09-12T05:08:45;97876.34;;;17.14;77.32
15884;BME280;8040;50.254;10.960;2023-09-12T05:11:10;97873.16;;;17.12;77.06
15884;BME280;8040;50.254;10.960;2023-09-12T05:13:35;97881.22;;;17.21;76.93
15884;BME280;8040;50.254;10.960;2023-09-12T05:16:01;97903.66;;;17.38;76.79
15884;BME280;8040;50.254;10.960;2023-09-12T05:18:26;97929.88;;;17.51;76.38
15884;BME280;8040;50.254;10.960;2023-09-12T05:20:52;97918.69;;;17.44;76.45
15884;BME280;8040;50.254;10.960;2023-09-12T05:23:17;97911.53;;;17.40;76.33
15884;BME280;8040;50.254;10.960;2023-09-12T05:25:42;97909.78;;;17.47;76.34
15884;BME280;8040;50.254;10.960;2023-09-12T05:28:08;97934.22;;;17.68;76.38
15884;BME280;8040;50.254;10.960;2023-09-12T05:30:33;97898.41;;;17.61;75.95
15884;BME280;8040;50.254;10.960;2023-09-12T05:32:59;97939.38;;;18.00;75.51
15884;BME280;8040;50.254;10.960;2023-09-12T05:35:24;97912.97;;;18.11;74.60
15884;BME280;8040;50.254;10.960;2023-09-12T05:37:51;97916.22;;;18.48;73.33
15884;BME280;8040;50.254;10.960;2023-09-12T05:40:17;97908.06;;;18.70;71.68
15884;BME280;8040;50.254;10.960;2023-09-12T05:46:23;97918.44;;;18.96;69.43
15884;BME280;8040;50.254;10.960;2023-09-12T05:48:49;97929.16;;;19.01;69.27
15884;BME280;8040;50.254;10.960;2023-09-12T05:51:14;97937.63;;;18.92;69.15
15884;BME280;8040;50.254;10.960;2023-09-12T05:53:39;97889.97;;;18.50;69.16
15884;BME280;8040;50.254;10.960;2023-09-12T05:56:05;97939.97;;;18.75;69.14
15884;BME280;8040;50.254;10.960;2023-09-12T05:58:30;97902.13;;;18.49;69.27
15884;BME280;8040;50.254;10.960;2023-09-12T06:00:55;97891.41;;;18.44;69.92
15884;BME280;8040;50.254;10.960;2023-09-12T06:03:21;97889.44;;;18.45;69.27
15884;BME280;8040;50.254;10.960;2023-09-12T06:05:46;97933.09;;;18.65;70.09
15884;BME280;8040;50.254;10.960;2023-09-12T06:08:12;97938.22;;;18.67;70.29
15884;BME280;8040;50.254;10.960;2023-09-12T06:10:37;97941.31;;;18.65;69.94
15884;BME280;8040;50.254;10.960;2023-09-12T06:13:03;97885.56;;;18.30;69.99
15884;BME280;8040;50.254;10.960;2023-09-12T06:15:28;97874.16;;;18.28;69.85
15884;BME280;8040;50.254;10.960;2023-09-12T06:17:54;97931.56;;;18.68;69.65
15884;BME280;8040;50.254;10.960;2023-09-12T06:20:20;97924.13;;;18.68;69.36
15884;BME280;8040;50.254;10.960;2023-09-12T06:22:45;97912.34;;;18.68;69.34
15884;BME280;8040;50.254;10.960;2023-09-12T06:25:11;97935.16;;;18.87;69.88
15884;BME280;8040;50.254;10.960;2023-09-12T06:27:45;97931.66;;;18.90;69.90
15884;BME280;8040;50.254;10.960;2023-09-12T06:30:11;97885.06;;;18.59;69.70
15884;BME280;8040;50.254;10.960;2023-09-12T06:32:37;97947.16;;;18.98;70.11
15884;BME280;8040;50.254;10.960;2023-09-12T06:35:03;97936.44;;;18.93;69.69
15884;BME280;8040;50.254;10.960;2023-09-12T06:37:29;97920.53;;;18.83;69.37
15884;BME280;8040;50.254;10.960;2023-09-12T06:39:54;97905.94;;;18.79;69.28
15884;BME280;8040;50.254;10.960;2023-09-12T06:42:20;97947.16;;;19.17;69.61
15884;BME280;8040;50.254;10.960;2023-09-12T06:44:45;97913.28;;;18.94;69.36
15884;BME280;8040;50.254;10.960;2023-09-12T06:47:11;97921.25;;;18.99;69.28
15884;BME280;8040;50.254;10.960;2023-09-12T06:49:45;97946.16;;;19.25;68.90
15884;BME280;8040;50.254;10.960;2023-09-12T06:52:11;97938.22;;;19.20;68.70
15884;BME280;8040;50.254;10.960;2023-09-12T06:54:37;97920.84;;;19.16;68.65
15884;BME280;8040;50.254;10.960;2023-09-12T06:57:03;97940.50;;;19.37;68.42
15884;BME280;8040;50.254;10.960;2023-09-12T06:59:28;97962.78;;;19.51;67.33
15884;BME280;8040;50.254;10.960;2023-09-12T07:01:54;97966.84;;;19.57;67.05
15884;BME280;8040;50.254;10.960;2023-09-12T07:04:19;97915.63;;;19.30;66.57
15884;BME280;8040;50.254;10.960;2023-09-12T07:06:44;97943.91;;;19.50;66.68
15884;BME280;8040;50.254;10.960;2023-09-12T07:09:10;97914.16;;;19.36;66.48
15884;BME280;8040;50.254;10.960;2023-09-12T07:11:42;97936.84;;;19.52;66.27
15884;BME280;8040;50.254;10.960;2023-09-12T07:14:09;97927.25;;;19.62;66.14
15884;BME280;8040;50.254;10.960;2023-09-12T07:16:35;97919.81;;;19.66;65.64
15884;BME280;8040;50.254;10.960;2023-09-12T07:19:01;97908.16;;;19.72;65.50
15884;BME280;8040;50.254;10.960;2023-09-12T07:21:26;97926.13;;;19.89;64.58
15884;BME280;8040;50.254;10.960;2023-09-12T07:23:51;97886.56;;;19.74;64.60
15884;BME280;8040;50.254;10.960;2023-09-12T07:26:17;97866.88;;;19.72;64.39
15884;BME280;8040;50.254;10.960;2023-09-12T07:28:42;97888.94;;;19.98;64.10
15884;BME280;8040;50.254;10.960;2023-09-12T07:31:08;97919.47;;;20.12;63.50
15884;BME280;8040;50.254;10.960;2023-09-12T07:33:33;97942.69;;;20.37;63.15
15884;BME280;8040;50.254;10.960;2023-09-12T07:35:59;97917.16;;;20.40;62.98
15884;BME280;8040;50.254;10.960;2023-09-12T07:38:25;97943.88;;;20.62;62.91
15884;BME280;8040;50.254;10.960;2023-09-12T07:40:50;97919.47;;;20.64;62.42
15884;BME280;8040;50.254;10.960;2023-09-12T07:43:16;97929.88;;;20.74;62.15
15884;BME280;8040;50.254;10.960;2023-09-12T07:45:42;97869.66;;;20.47;61.79
15884;BME280;8040;50.254;10.960;2023-09-12T07:48:09;97920.19;;;20.87;61.99
15884;BME280;8040;50.254;10.960;2023-09-12T07:50:36;97877.06;;;20.72;62.17
15884;BME280;8040;50.254;10.960;2023-09-12T07:53:07;97910.06;;;20.95;62.33
15884;BME280;8040;50.254;10.960;2023-09-12T07:55:37;97863.03;;;20.84;62.05
15884;BME280;8040;50.254;10.960;2023-09-12T07:58:14;97925.09;;;21.30;62.01
15884;BME280;8040;50.254;10.960;2023-09-12T08:00:40;97880.69;;;21.09;61.98
15884;BME280;8040;50.254;10.960;2023-09-12T08:03:05;97927.16;;;21.40;61.98
15884;BME280;8040;50.254;10.960;2023-09-12T08:05:31;97907.06;;;21.40;61.89
15884;BME280;8040;50.254;10.960;2023-09-12T08:07:56;97881.47;;;21.43;61.72
15884;BME280;8040;50.254;10.960;2023-09-12T08:10:21;97898.97;;;21.57;61.15
15884;BME280;8040;50.254;10.960;2023-09-12T08:12:47;97904.66;;;21.71;60.91
15884;BME280;8040;50.254;10.960;2023-09-12T08:15:13;97936.09;;;22.00;60.58
15884;BME280;8040;50.254;10.960;2023-09-12T08:17:39;97910.34;;;21.89;60.39
15884;BME280;8040;50.254;10.960;2023-09-12T08:20:06;97932.66;;;22.13;60.09
15884;BME280;8040;50.254;10.960;2023-09-12T08:22:35;97886.28;;;21.89;59.95
15884;BME280;8040;50.254;10.960;2023-09-12T08:25:01;97927.19;;;22.20;59.61
15884;BME280;8040;50.254;10.960;2023-09-12T08:27:26;97922.06;;;22.19;59.10
15884;BME280;8040;50.254;10.960;2023-09-12T08:29:52;97915.72;;;22.18;59.14
15884;BME280;8040;50.254;10.960;2023-09-12T08:32:17;97892.75;;;22.07;59.23
15884;BME280;8040;50.254;10.960;2023-09-12T08:34:43;97919.75;;;22.28;58.99
15884;BME280;8040;50.254;10.960;2023-09-12T08:37:10;97899.16;;;22.18;58.79
15884;BME280;8040;50.254;10.960;2023-09-12T08:39:44;97915.13;;;22.42;58.73
15884;BME280;8040;50.254;10.960;2023-09-12T08:42:15;97922.75;;;22.56;58.92
15884;BME280;8040;50.254;10.960;2023-09-12T08:44:42;97936.63;;;22.66;58.53
15884;BME280;8040;50.254;10.960;2023-09-12T08:47:11;97912.16;;;22.68;58.50
15884;BME280;8040;50.254;10.960;2023-09-12T08:49:38;97908.25;;;22.76;58.33
15884;BME280;8040;50.254;10.960;2023-09-12T08:52:04;97869.41;;;22.55;58.12
15884;BME280;8040;50.254;10.960;2023-09-12T08:54:31;97919.41;;;22.90;58.30
15884;BME280;8040;50.254;10.960;2023-09-12T08:56:57;97912.31;;;23.00;57.16
15884;BME280;8040;50.254;10.960;2023-09-12T08:59:24;97938.59;;;23.30;56.38
15884;BME280;8040;50.254;10.960;2023-09-12T09:01:51;97904.16;;;23.24;55.37
15884;BME280;8040;50.254;10.960;2023-09-12T09:04:18;97912.53;;;23.45;55.78
15884;BME280;8040;50.254;10.960;2023-09-12T09:06:45;97917.31;;;23.55;55.13
15884;BME280;8040;50.254;10.960;2023-09-12T09:09:11;97947.44;;;23.78;55.59
15884;BME280;8040;50.254;10.960;2023-09-12T09:11:37;97907.00;;;23.63;54.89
15884;BME280;8040;50.254;10.960;2023-09-12T09:14:03;97893.16;;;23.52;55.92
15884;BME280;8040;50.254;10.960;2023-09-12T09:16:29;97899.13;;;23.61;54.26
15884;BME280;8040;50.254;10.960;2023-09-12T09:21:28;97907.88;;;23.88;56.18
15884;BME280;8040;50.254;10.960;2023-09-12T09:23:59;97919.38;;;24.00;55.13
15884;BME280;8040;50.254;10.960;2023-09-12T09:26:24;97886.09;;;23.86;54.48
15884;BME280;8040;50.254;10.960;2023-09-12T09:29:03;97937.63;;;24.22;55.55
15884;BME280;8040;50.254;10.960;2023-09-12T09:31:29;97913.44;;;24.16;55.08
15884;BME280;8040;50.254;10.960;2023-09-12T09:33:55;97922.94;;;24.32;55.36
15884;BME280;8040;50.254;10.960;2023-09-12T09:36:20;97927.28;;;24.37;53.97
15884;BME280;8040;50.254;10.960;2023-09-12T09:38:46;97901.97;;;24.21;54.51
15884;BME280;8040;50.254;10.960;2023-09-12T09:41:11;97865.16;;;23.99;53.32
15884;BME280;8040;50.254;10.960;2023-09-12T09:43:40;97911.06;;;24.35;52.83
15884;BME280;8040;50.254;10.960;2023-09-12T09:46:05;97862.00;;;23.97;52.49
15884;BME280;8040;50.254;10.960;2023-09-12T09:48:31;97858.81;;;23.88;52.86
15884;BME280;8040;50.254;10.960;2023-09-12T09:51:01;97908.69;;;24.09;53.70
15884;BME280;8040;50.254;10.960;2023-09-12T09:53:28;97880.19;;;23.95;53.49
15884;BME280;8040;50.254;10.960;2023-09-12T09:56:08;97922.16;;;24.18;54.21
15884;BME280;8040;50.254;10.960;2023-09-12T09:58:34;97931.25;;;24.22;54.15
15884;BME280;8040;50.254;10.960;2023-09-12T10:01:01;97900.78;;;24.08;53.74
15884;BME280;8040;50.254;10.960;2023-09-12T10:03:29;97925.34;;;24.23;55.12
15884;BME280;8040;50.254;10.960;2023-09-12T10:05:56;97922.16;;;24.32;55.35
15884;BME280;8040;50.254;10.960;2023-09-12T10:08:23;97911.47;;;24.30;54.90
15884;BME280;8040;50.254;10.960;2023-09-12T10:10:50;97909.47;;;24.41;54.69
15884;BME280;8040;50.254;10.960;2023-09-12T10:13:18;97911.06;;;24.46;53.78
15884;BME280;8040;50.254;10.960;2023-09-12T10:15:44;97922.94;;;24.60;52.88
15884;BME280;8040;50.254;10.960;2023-09-12T10:18:14;97908.25;;;24.56;52.44
15884;BME280;8040;50.254;10.960;2023-09-12T10:20:48;97861.97;;;24.25;51.14
15884;BME280;8040;50.254;10.960;2023-09-12T10:23:30;97905.94;;;24.58;50.93
15884;BME280;8040;50.254;10.960;2023-09-12T10:28:45;97888.84;;;24.56;51.62
15884;BME280;8040;50.254;10.960;2023-09-12T10:31:12;97892.03;;;24.62;51.63
15884;BME280;8040;50.254;10.960;2023-09-12T10:33:38;97862.72;;;24.50;50.86
15884;BME280;8040;50.254;10.960;2023-09-12T10:36:06;97809.69;;;24.20;50.76
15884;BME280;8040;50.254;10.960;2023-09-12T10:38:44;97858.38;;;24.46;50.76
15884;BME280;8040;50.254;10.960;2023-09-12T10:41:13;97878.94;;;24.66;50.07
15884;BME280;8040;50.254;10.960;2023-09-12T10:43:42;97842.09;;;24.51;50.71
15884;BME280;8040;50.254;10.960;2023-09-12T10:46:09;97818.00;;;24.34;50.22
15884;BME280;8040;50.254;10.960;2023-09-12T10:48:36;97854.00;;;24.62;49.76
15884;BME280;8040;50.254;10.960;2023-09-12T10:51:02;97895.88;;;24.99;49.83
15884;BME280;8040;50.254;10.960;2023-09-12T10:53:32;97875.69;;;24.95;50.40
15884;BME280;8040;50.254;10.960;2023-09-12T10:58:33;97873.69;;;24.99;50.10
15884;BME280;8040;50.254;10.960;2023-09-12T11:01:23;97890.69;;;25.12;49.41
15884;BME280;8040;50.254;10.960;2023-09-12T11:03:57;97890.69;;;25.12;50.67
15884;BME280;8040;50.254;10.960;2023-09-12T11:06:29;97848.34;;;24.94;49.66
15884;BME280;8040;50.254;10.960;2023-09-12T11:11:39;97849.84;;;25.09;50.18
15884;BME280;8040;50.254;10.960;2023-09-12T11:14:05;97840.34;;;25.06;50.35
15884;BME280;8040;50.254;10.960;2023-09-12T11:16:32;97873.63;;;25.24;49.45
15884;BME280;8040;50.254;10.960;2023-09-12T11:21:53;97858.53;;;25.21;49.77
15884;BME280;8040;50.254;10.960;2023-09-12T11:24:19;97868.84;;;25.24;49.62
15884;BME280;8040;50.254;10.960;2023-09-12T11:26:56;97818.47;;;25.19;50.34
15884;BME280;8040;50.254;10.960;2023-09-12T11:29:43;97861.50;;;25.58;50.46
15884;BME280;8040;50.254;10.960;2023-09-12T11:32:08;97860.59;;;25.75;50.24
15884;BME280;8040;50.254;10.960;2023-09-12T11:34:41;97855.00;;;25.79;48.77
15884;BME280;8040;50.254;10.960;2023-09-12T11:37:07;97849.50;;;25.75;47.71
15884;BME280;8040;50.254;10.960;2023-09-12T11:39:36;97860.94;;;25.81;47.35
15884;BME280;8040;50.254;10.960;2023-09-12T11:42:03;97849.50;;;25.72;46.84
15884;BME280;8040;50.254;10.960;2023-09-12T11:44:29;97841.22;;;25.68;46.26
15884;BME280;8040;50.254;10.960;2023-09-12T11:46:57;97855.03;;;25.75;46.45
15884;BME280;8040;50.254;10.960;2023-09-12T11:49:36;97859.31;;;25.87;46.61
15884;BME280;8040;50.254;10.960;2023-09-12T11:52:02;97849.03;;;25.84;46.72
15884;BME280;8040;50.254;10.960;2023-09-12T11:54:29;97823.25;;;25.80;45.29
15884;BME280;8040;50.254;10.960;2023-09-12T11:56:54;97843.72;;;26.03;44.69
15884;BME280;8040;50.254;10.960;2023-09-12T11:59:25;97833.31;;;26.11;44.74
15884;BME280;8040;50.254;10.960;2023-09-12T12:01:52;97865.72;;;26.31;44.82
15884;BME280;8040;50.254;10.960;2023-09-12T12:04:20;97824.66;;;26.05;44.40
15884;BME280;8040;50.254;10.960;2023-09-12T12:06:47;97806.41;;;26.01;43.17
15884;BME280;8040;50.254;10.960;2023-09-12T12:09:13;97815.47;;;26.08;42.43
15884;BME280;8040;50.254;10.960;2023-09-12T12:11:41;97844.34;;;26.21;43.47
15884;BME280;8040;50.254;10.960;2023-09-12T12:14:15;97853.38;;;26.32;42.61
15884;BME280;8040;50.254;10.960;2023-09-12T12:16:44;97848.94;;;26.38;41.92
15884;BME280;8040;50.254;10.960;2023-09-12T12:19:11;97848.94;;;26.38;42.73
15884;BME280;8040;50.254;10.960;2023-09-12T12:21:40;97814.19;;;26.16;43.23
15884;BME280;8040;50.254;10.960;2023-09-12T12:24:09;97843.06;;;26.33;43.25
15884;BME280;8040;50.254;10.960;2023-09-12T12:26:35;97835.94;;;26.28;42.74
15884;BME280;8040;50.254;10.960;2023-09-12T12:29:00;97840.22;;;26.40;41.58
15884;BME280;8040;50.254;10.960;2023-09-12T12:31:26;97821.94;;;26.39;41.49
15884;BME280;8040;50.254;10.960;2023-09-12T12:33:53;97839.91;;;26.68;40.75
15884;BME280;8040;50.254;10.960;2023-09-12T12:36:18;97826.44;;;26.66;41.54
15884;BME280;8040;50.254;10.960;2023-09-12T12:38:46;97841.66;;;26.88;41.16
15884;BME280;8040;50.254;10.960;2023-09-12T12:41:26;97798.16;;;26.68;40.33
15884;BME280;8040;50.254;10.960;2023-09-12T12:43:53;97833.97;;;26.99;40.13
15884;BME280;8040;50.254;10.960;2023-09-12T12:46:24;97830.06;;;26.93;40.63
15884;BME280;8040;50.254;10.960;2023-09-12T12:48:50;97830.84;;;26.97;41.82
15884;BME280;8040;50.254;10.960;2023-09-12T12:51:33;97821.06;;;26.82;41.85
15884;BME280;8040;50.254;10.960;2023-09-12T12:54:06;97820.75;;;26.77;41.30
15884;BME280;8040;50.254;10.960;2023-09-12T12:56:32;97811.31;;;26.67;41.25
15884;BME280;8040;50.254;10.960;2023-09-12T12:58:58;97792.78;;;26.54;40.48
15884;BME280;8040;50.254;10.960;2023-09-12T13:01:28;97811.31;;;26.67;40.87
15884;BME280;8040;50.254;10.960;2023-09-12T13:03:54;97785.19;;;26.58;41.58
15884;BME280;8040;50.254;10.960;2023-09-12T13:06:22;97799.44;;;26.63;41.71
15884;BME280;8040;50.254;10.960;2023-09-12T13:08:49;97792.28;;;26.62;41.96
15884;BME280;8040;50.254;10.960;2023-09-12T13:11:15;97785.91;;;26.62;42.88
15884;BME280;8040;50.254;10.960;2023-09-12T13:13:41;97768.63;;;26.44;42.58
15884;BME280;8040;50.254;10.960;2023-09-12T13:16:10;97763.13;;;26.37;42.87
15884;BME280;8040;50.254;10.960;2023-09-12T13:18:37;97791.53;;;26.58;43.13
15884;BME280;8040;50.254;10.960;2023-09-12T13:21:03;97791.97;;;26.53;43.62
15884;BME280;8040;50.254;10.960;2023-09-12T13:23:29;97785.19;;;26.58;42.90
15884;BME280;8040;50.254;10.960;2023-09-12T13:25:56;97780.84;;;26.57;42.63